createdAt,value
2024-01-24T00:01:48.824Z,6.92
2024-01-24T00:04:18.152Z,6.83
2024-01-24T00:06:48.313Z,6.95
2024-01-24T00:09:38.547Z,6.90
2024-01-24T00:12:09.888Z,6.96
2024-01-24T00:14:39.970Z,6.87
2024-01-24T00:17:10.041Z,6.83
2024-01-24T00:19:39.832Z,6.96
2024-01-24T00:22:12.966Z,6.95
2024-01-24T00:24:43.995Z,6.92
2024-01-24T00:27:14.688Z,7.00
2024-01-24T00:29:44.492Z,7.04
2024-01-24T00:32:14.319Z,7.08
2024-01-24T00:34:44.279Z,7.05
2024-01-24T00:37:14.257Z,7.11
2024-01-24T00:39:48.057Z,7.13
2024-01-24T00:42:17.961Z,7.15
2024-01-24T00:44:52.338Z,7.17
2024-01-24T00:47:22.424Z,7.20
2024-01-24T00:49:52.026Z,7.21
2024-01-24T00:52:21.785Z,7.23
2024-01-24T00:54:53.027Z,7.21
2024-01-24T00:57:23.264Z,7.21
2024-01-24T00:59:52.920Z,7.18
2024-01-24T01:02:23.112Z,7.19
2024-01-24T01:04:56.474Z,7.18
2024-01-24T01:07:26.457Z,7.08
2024-01-24T01:09:57.612Z,7.12
2024-01-24T01:12:28.053Z,7.14
2024-01-24T01:14:57.823Z,7.02
2024-01-24T01:17:28.281Z,7.02
2024-01-24T01:19:57.851Z,7.07
2024-01-24T01:22:28.030Z,6.98
2024-01-24T01:25:00.487Z,6.99
2024-01-24T01:27:31.342Z,7.07
2024-01-24T01:30:02.153Z,7.05
2024-01-24T01:32:32.188Z,7.11
2024-01-24T01:35:01.516Z,7.12
2024-01-24T01:37:31.645Z,7.13
2024-01-24T01:40:02.570Z,7.15
2024-01-24T01:42:32.818Z,7.15
2024-01-24T01:45:02.447Z,7.17
2024-01-24T01:47:32.305Z,7.17
2024-01-24T01:50:01.662Z,7.20
2024-01-24T01:52:31.885Z,7.20
2024-01-24T01:55:02.920Z,7.20
2024-01-24T01:57:32.895Z,7.19
2024-01-24T02:00:02.366Z,7.20
2024-01-24T02:02:32.419Z,7.20
2024-01-24T02:05:02.052Z,7.21
2024-01-24T02:07:32.273Z,7.22
2024-01-24T02:10:03.260Z,7.25
2024-01-24T02:12:32.981Z,7.23
2024-01-24T02:15:03.238Z,7.18
2024-01-24T02:17:33.210Z,7.21
2024-01-24T02:20:02.707Z,7.20
2024-01-24T02:22:33.248Z,7.20
2024-01-24T02:25:05.028Z,7.18
2024-01-24T02:27:35.038Z,7.23
2024-01-24T02:30:06.286Z,7.19
2024-01-24T02:32:36.050Z,7.19
2024-01-24T02:35:05.668Z,7.08
2024-01-24T02:37:35.369Z,7.10
2024-01-24T02:40:07.742Z,7.11
2024-01-24T02:42:37.634Z,7.11
2024-01-24T02:45:07.709Z,6.99
2024-01-24T02:47:37.704Z,6.97
2024-01-24T02:50:07.369Z,7.07
2024-01-24T02:52:37.290Z,7.16
2024-01-24T02:55:08.960Z,7.11
2024-01-24T02:57:38.831Z,7.09
2024-01-24T03:00:10.030Z,7.13
2024-01-24T03:02:39.854Z,7.19
2024-01-24T03:05:10.496Z,7.20
2024-01-24T03:07:41.724Z,7.20
2024-01-24T03:10:13.524Z,7.18
2024-01-24T03:12:43.572Z,7.20
2024-01-24T03:15:13.084Z,7.21
2024-01-24T03:17:43.633Z,7.20
2024-01-24T03:20:13.983Z,7.22
2024-01-24T03:22:43.948Z,7.24
2024-01-24T03:25:17.659Z,7.23
2024-01-24T03:27:47.580Z,7.14
2024-01-24T03:30:17.420Z,7.23
2024-01-24T03:32:47.371Z,7.19
2024-01-24T03:35:17.386Z,7.14
2024-01-24T03:37:47.684Z,7.20
2024-01-24T03:40:18.539Z,7.22
2024-01-24T03:42:48.889Z,7.22
2024-01-24T03:45:18.418Z,7.18
2024-01-24T03:47:50.071Z,7.10
2024-01-24T03:50:20.666Z,7.06
2024-01-24T03:52:51.002Z,7.11
2024-01-24T03:55:22.196Z,6.97
2024-01-24T03:57:54.420Z,6.93
2024-01-24T04:00:24.272Z,7.05
2024-01-24T04:02:54.291Z,7.07
2024-01-24T04:05:24.099Z,7.05
2024-01-24T04:07:54.139Z,7.07
2024-01-24T04:10:25.283Z,6.99
2024-01-24T04:12:55.025Z,7.06
2024-01-24T04:15:24.617Z,6.81
2024-01-24T04:17:54.316Z,6.93
2024-01-24T04:20:23.581Z,6.98
2024-01-24T04:22:53.151Z,6.96
2024-01-24T04:25:23.538Z,6.85
2024-01-24T04:27:54.599Z,6.81
2024-01-24T04:30:24.074Z,6.73
2024-01-24T04:32:56.689Z,6.74
2024-01-24T04:35:25.675Z,6.61
2024-01-24T04:37:54.999Z,6.72
2024-01-24T04:40:23.911Z,6.44
2024-01-24T04:42:54.604Z,6.46
2024-01-24T04:45:23.634Z,6.50
2024-01-24T04:47:52.947Z,6.51
2024-01-24T04:50:23.188Z,6.48
2024-01-24T04:52:52.734Z,6.42
2024-01-24T04:55:21.790Z,6.35
2024-01-24T04:57:51.404Z,6.42
2024-01-24T05:00:22.039Z,6.24
2024-01-24T05:02:52.718Z,6.22
2024-01-24T05:05:21.844Z,6.27
2024-01-24T05:07:51.208Z,6.14
2024-01-24T05:10:20.318Z,6.07
2024-01-24T05:12:49.714Z,6.14
2024-01-24T05:15:18.980Z,6.15
2024-01-24T05:17:49.911Z,6.13
2024-01-24T05:20:19.725Z,5.99
2024-01-24T05:22:49.273Z,6.08
2024-01-24T05:25:18.297Z,5.90
2024-01-24T05:27:47.953Z,5.95
2024-01-24T05:30:26.327Z,6.06
2024-01-24T05:33:06.242Z,6.02
2024-01-24T05:35:35.301Z,5.92
2024-01-24T05:38:04.705Z,5.94
2024-01-24T05:40:33.625Z,5.93
2024-01-24T05:43:04.134Z,6.01
2024-01-24T05:45:33.349Z,6.06
2024-01-24T05:48:02.900Z,6.05
2024-01-24T05:50:33.445Z,6.04
2024-01-24T05:53:02.823Z,6.00
2024-01-24T05:55:32.092Z,6.05
2024-01-24T05:58:03.069Z,6.13
2024-01-24T06:00:32.450Z,5.95
2024-01-24T06:03:03.400Z,6.01
2024-01-24T06:05:34.447Z,6.00
2024-01-24T06:08:04.755Z,6.14
2024-01-24T06:10:34.112Z,5.89
2024-01-24T06:13:03.732Z,6.00
2024-01-24T06:15:32.971Z,6.13
2024-01-24T06:18:02.445Z,6.13
2024-01-24T06:20:31.629Z,6.02
2024-01-24T06:23:02.563Z,5.78
2024-01-24T06:25:31.640Z,6.01
2024-01-24T06:28:01.287Z,5.96
2024-01-24T06:30:31.232Z,5.77
2024-01-24T06:33:01.438Z,5.97
2024-01-24T06:35:32.544Z,5.96
2024-01-24T06:38:04.001Z,5.77
2024-01-24T06:40:33.162Z,5.70
2024-01-24T06:43:03.051Z,5.95
2024-01-24T06:45:32.091Z,6.02
2024-01-24T06:48:01.766Z,5.91
2024-01-24T06:50:32.626Z,6.17
2024-01-24T06:53:05.070Z,6.26
2024-01-24T06:55:34.629Z,6.23
2024-01-24T06:58:05.563Z,6.26
2024-01-24T07:00:36.909Z,6.16
2024-01-24T07:03:07.129Z,6.30
2024-01-24T07:05:36.801Z,6.46
2024-01-24T07:08:09.006Z,6.24
2024-01-24T07:10:42.336Z,6.32
2024-01-24T07:13:14.388Z,6.37
2024-01-24T07:15:44.632Z,6.16
2024-01-24T07:18:15.511Z,6.22
2024-01-24T07:20:52.306Z,6.38
2024-01-24T07:23:28.913Z,6.30
2024-01-24T07:25:59.624Z,6.49
2024-01-24T07:28:54.000Z,6.39
2024-01-24T07:31:24.402Z,6.22
2024-01-24T07:33:55.811Z,6.43
2024-01-24T07:36:26.353Z,6.33
2024-01-24T07:39:02.741Z,6.32
2024-01-24T07:44:38.417Z,6.47
2024-01-24T07:47:08.182Z,6.28
2024-01-24T07:49:38.901Z,6.41
2024-01-24T07:54:57.202Z,6.37
2024-01-24T07:57:28.325Z,6.43
2024-01-24T07:59:57.976Z,6.32
2024-01-24T08:02:27.046Z,6.33
2024-01-24T08:05:00.420Z,6.54
2024-01-24T08:07:32.702Z,6.52
2024-01-24T08:10:05.926Z,6.60
2024-01-24T08:15:26.786Z,6.68
2024-01-24T08:17:56.714Z,6.69
2024-01-24T08:20:26.975Z,6.69
2024-01-24T08:22:56.146Z,6.76
2024-01-24T08:25:27.799Z,6.76
2024-01-24T08:27:56.909Z,6.65
2024-01-24T08:30:26.478Z,6.91
2024-01-24T08:32:55.645Z,7.03
2024-01-24T08:35:25.235Z,7.13
2024-01-24T08:37:54.269Z,7.15
2024-01-24T08:40:23.586Z,7.17
2024-01-24T08:42:53.941Z,7.32
2024-01-24T08:45:23.422Z,7.19
2024-01-24T08:47:52.563Z,7.28
2024-01-24T08:50:23.604Z,7.34
2024-01-24T08:52:53.609Z,7.51
2024-01-24T08:55:23.089Z,7.52
2024-01-24T08:57:53.483Z,7.48
2024-01-24T09:00:23.285Z,7.53
2024-01-24T09:02:52.650Z,7.53
2024-01-24T09:05:25.044Z,7.54
2024-01-24T09:07:54.267Z,7.65
2024-01-24T09:10:24.425Z,7.78
2024-01-24T09:12:54.967Z,7.69
2024-01-24T09:15:25.247Z,7.87
2024-01-24T09:17:54.608Z,7.78
2024-01-24T09:20:24.107Z,7.92
2024-01-24T09:22:53.820Z,8.00
2024-01-24T09:25:23.283Z,7.82
2024-01-24T09:27:53.258Z,8.02
2024-01-24T09:30:24.082Z,8.02
2024-01-24T09:32:53.329Z,8.06
2024-01-24T09:35:23.201Z,8.02
2024-01-24T09:37:52.306Z,8.26
2024-01-24T09:40:21.694Z,8.21
2024-01-24T09:42:50.934Z,8.28
2024-01-24T09:45:20.452Z,8.35
2024-01-24T09:47:52.416Z,8.54
2024-01-24T09:50:22.109Z,8.53
2024-01-24T09:52:51.998Z,8.40
2024-01-24T09:55:24.055Z,8.75
2024-01-24T09:57:53.151Z,8.81
2024-01-24T10:00:22.663Z,8.76
2024-01-24T10:02:53.085Z,8.91
2024-01-24T10:05:24.644Z,8.86
2024-01-24T10:07:53.777Z,8.90
2024-01-24T10:10:23.054Z,8.90
2024-01-24T10:12:52.326Z,8.90
2024-01-24T10:15:22.709Z,8.94
2024-01-24T10:17:53.915Z,9.03
2024-01-24T10:20:23.199Z,9.04
2024-01-24T10:22:53.441Z,9.09
2024-01-24T10:25:23.625Z,9.18
2024-01-24T10:27:52.645Z,9.24
2024-01-24T10:30:23.699Z,9.04
2024-01-24T10:32:54.570Z,9.12
2024-01-24T10:35:23.909Z,9.31
2024-01-24T10:37:53.492Z,9.39
2024-01-24T10:40:23.634Z,9.34
2024-01-24T10:42:55.016Z,9.49
2024-01-24T10:45:24.803Z,9.56
2024-01-24T10:47:59.403Z,9.68
2024-01-24T10:50:28.806Z,9.38
2024-01-24T10:52:58.236Z,9.59
2024-01-24T10:55:27.350Z,9.60
2024-01-24T10:57:57.448Z,9.72
2024-01-24T11:00:26.601Z,9.68
2024-01-24T11:02:57.850Z,9.56
2024-01-24T11:05:27.732Z,9.63
2024-01-24T11:07:58.861Z,9.76
2024-01-24T11:10:29.338Z,9.70
2024-01-24T11:12:59.077Z,9.72
2024-01-24T11:15:30.240Z,9.74
2024-01-24T11:18:18.440Z,9.74
2024-01-24T11:20:49.122Z,9.83
2024-01-24T11:23:42.806Z,9.77
2024-01-24T11:26:12.101Z,9.91
2024-01-24T11:28:41.459Z,9.93
2024-01-24T11:31:11.044Z,10.17
2024-01-24T11:33:46.975Z,10.04
2024-01-24T11:36:17.468Z,10.08
2024-01-24T11:38:47.183Z,9.90
2024-01-24T11:41:27.733Z,9.93
2024-01-24T11:43:57.524Z,9.84
2024-01-24T11:46:27.019Z,9.99
2024-01-24T11:48:58.440Z,10.10
2024-01-24T11:51:28.956Z,10.20
2024-01-24T11:54:02.273Z,10.24
2024-01-24T11:56:31.437Z,10.32
2024-01-24T11:59:00.663Z,10.17
2024-01-24T12:01:29.605Z,10.09
2024-01-24T12:03:59.075Z,10.13
2024-01-24T12:06:32.917Z,10.00
2024-01-24T12:09:02.377Z,9.98
2024-01-24T12:11:31.232Z,10.02
2024-01-24T12:14:00.539Z,9.89
2024-01-24T12:16:31.468Z,9.96
2024-01-24T12:19:01.010Z,9.86
2024-01-24T12:21:31.593Z,9.89
2024-01-24T12:24:01.655Z,9.84
2024-01-24T12:26:31.407Z,9.75
2024-01-24T12:29:01.336Z,9.65
2024-01-24T12:31:31.283Z,9.66
2024-01-24T12:34:03.382Z,9.72
2024-01-24T12:36:33.840Z,9.64
2024-01-24T12:39:03.146Z,9.68
2024-01-24T12:41:33.189Z,9.70
2024-01-24T12:44:02.570Z,9.67
2024-01-24T12:46:31.708Z,9.70
2024-01-24T12:49:01.247Z,9.73
2024-01-24T12:51:30.479Z,9.76
2024-01-24T12:54:01.274Z,9.74
2024-01-24T12:56:30.313Z,9.67
2024-01-24T12:59:00.128Z,9.64
2024-01-24T13:01:29.177Z,9.47
2024-01-24T13:03:58.712Z,9.50
2024-01-24T13:06:28.523Z,9.46
2024-01-24T13:08:59.390Z,9.50
2024-01-24T13:11:30.593Z,9.50
2024-01-24T13:13:59.906Z,9.42
2024-01-24T13:16:28.988Z,9.37
2024-01-24T13:18:58.785Z,9.30
2024-01-24T13:21:27.986Z,9.38
2024-01-24T13:24:01.665Z,9.27
2024-01-24T13:26:32.474Z,9.26
2024-01-24T13:29:01.888Z,9.26
2024-01-24T13:31:30.843Z,9.23
2024-01-24T13:34:00.314Z,9.24
2024-01-24T13:36:29.364Z,9.24
2024-01-24T13:38:59.524Z,9.31
2024-01-24T13:41:28.758Z,9.31
2024-01-24T13:43:59.853Z,9.38
2024-01-24T13:46:28.842Z,9.27
2024-01-24T13:48:59.777Z,9.37
2024-01-24T13:51:38.731Z,9.24
2024-01-24T13:54:12.353Z,9.22
2024-01-24T13:56:41.433Z,9.28
2024-01-24T13:59:12.278Z,9.15
2024-01-24T14:01:45.600Z,9.11
2024-01-24T14:04:18.023Z,9.07
2024-01-24T14:06:48.474Z,9.13
2024-01-24T14:09:18.238Z,9.03
2024-01-24T14:11:48.810Z,9.09
2024-01-24T14:14:20.440Z,9.10
2024-01-24T14:16:49.461Z,9.11
2024-01-24T14:19:19.083Z,9.13
2024-01-24T14:21:48.442Z,8.92
2024-01-24T14:24:17.664Z,8.88
2024-01-24T14:26:46.671Z,8.87
2024-01-24T14:29:16.122Z,8.98
2024-01-24T14:31:46.436Z,8.93
2024-01-24T14:34:16.318Z,8.87
2024-01-24T14:36:52.053Z,8.92
2024-01-24T14:39:25.066Z,8.82
2024-01-24T14:41:54.079Z,8.86
2024-01-24T14:44:23.408Z,8.71
2024-01-24T14:46:53.788Z,8.74
2024-01-24T14:49:23.220Z,8.66
2024-01-24T14:51:52.182Z,8.67
2024-01-24T14:54:21.505Z,8.59
2024-01-24T14:56:50.570Z,8.62
2024-01-24T14:59:20.350Z,8.63
2024-01-24T15:01:49.356Z,8.67
2024-01-24T15:04:20.743Z,8.53
2024-01-24T15:06:49.904Z,8.65
2024-01-24T15:09:20.495Z,8.64
2024-01-24T15:11:49.597Z,8.65
2024-01-24T15:14:19.166Z,8.67
2024-01-24T15:16:48.096Z,8.62
2024-01-24T15:19:17.764Z,8.61
2024-01-24T15:21:48.289Z,8.61
2024-01-24T15:24:17.906Z,8.64
2024-01-24T15:26:47.012Z,8.69
2024-01-24T15:29:16.288Z,8.60
2024-01-24T15:31:45.319Z,8.68
2024-01-24T15:34:16.182Z,8.63
2024-01-24T15:36:45.841Z,8.65
2024-01-24T15:39:17.266Z,8.66
2024-01-24T15:41:47.200Z,8.69
2024-01-24T15:44:16.427Z,8.65
2024-01-24T15:46:45.504Z,8.64
2024-01-24T15:49:14.846Z,8.56
2024-01-24T15:51:43.915Z,8.57
2024-01-24T15:54:13.231Z,8.58
2024-01-24T15:56:43.599Z,8.55
2024-01-24T15:59:13.368Z,8.70
2024-01-24T16:01:46.649Z,8.68
2024-01-24T16:04:16.145Z,8.67
2024-01-24T16:06:45.330Z,8.69
2024-01-24T16:09:14.897Z,8.64
2024-01-24T16:11:45.247Z,8.66
2024-01-24T16:14:15.615Z,8.65
2024-01-24T16:16:46.127Z,8.46
2024-01-24T16:19:15.537Z,8.54
2024-01-24T16:21:44.798Z,8.49
2024-01-24T16:24:14.248Z,8.53
2024-01-24T16:26:43.254Z,8.47
2024-01-24T16:29:15.392Z,8.47
2024-01-24T16:31:44.667Z,8.42
2024-01-24T16:34:14.106Z,8.44
2024-01-24T16:36:43.171Z,8.45
2024-01-24T16:39:13.141Z,8.51
2024-01-24T16:41:42.155Z,8.43
2024-01-24T16:44:11.462Z,8.44
2024-01-24T16:46:41.966Z,8.39
2024-01-24T16:49:11.387Z,8.38
2024-01-24T16:51:40.515Z,8.35
2024-01-24T16:54:09.987Z,8.37
2024-01-24T16:56:39.123Z,8.42
2024-01-24T16:59:09.562Z,8.44
2024-01-24T17:01:38.696Z,8.36
2024-01-24T17:04:09.492Z,8.34
2024-01-24T17:06:40.677Z,8.43
2024-01-24T17:09:10.831Z,8.33
2024-01-24T17:11:39.735Z,8.38
2024-01-24T17:14:09.148Z,8.40
2024-01-24T17:16:38.374Z,8.34
2024-01-24T17:19:09.634Z,8.36
2024-01-24T17:21:39.094Z,8.34
2024-01-24T17:24:08.664Z,8.39
2024-01-24T17:26:40.150Z,8.44
2024-01-24T17:29:09.484Z,8.54
2024-01-24T17:31:38.822Z,8.44
2024-01-24T17:34:09.720Z,8.52
2024-01-24T17:36:38.917Z,8.42
2024-01-24T17:39:08.203Z,8.47
2024-01-24T17:41:37.267Z,8.35
2024-01-24T17:44:07.671Z,8.44
2024-01-24T17:46:39.537Z,8.26
2024-01-24T17:49:10.654Z,8.42
2024-01-24T17:51:39.702Z,8.30
2024-01-24T17:54:09.099Z,8.31
2024-01-24T17:56:38.130Z,8.38
2024-01-24T17:59:08.195Z,8.30
2024-01-24T18:01:39.335Z,8.16
2024-01-24T18:04:10.555Z,8.28
2024-01-24T18:06:39.672Z,8.26
2024-01-24T18:09:09.085Z,8.22
2024-01-24T18:11:39.980Z,8.18
2024-01-24T18:14:09.353Z,8.29
2024-01-24T18:16:38.480Z,8.19
2024-01-24T18:19:07.818Z,8.25
2024-01-24T18:21:38.264Z,8.20
2024-01-24T18:24:08.719Z,8.28
2024-01-24T18:26:37.706Z,8.36
2024-01-24T18:29:07.295Z,8.23
2024-01-24T18:31:36.297Z,8.32
2024-01-24T18:34:05.769Z,8.32
2024-01-24T18:36:34.819Z,8.27
2024-01-24T18:39:05.636Z,8.32
2024-01-24T18:41:34.577Z,8.34
2024-01-24T18:44:03.859Z,8.25
2024-01-24T18:46:33.181Z,8.36
2024-01-24T18:49:04.713Z,8.35
2024-01-24T18:51:34.244Z,8.33
2024-01-24T18:54:05.822Z,8.30
2024-01-24T18:56:34.814Z,8.28
2024-01-24T18:59:04.556Z,8.30
2024-01-24T19:01:33.752Z,8.20
2024-01-24T19:04:03.443Z,8.31
2024-01-24T19:06:32.753Z,8.18
2024-01-24T19:09:02.751Z,8.31
2024-01-24T19:11:33.292Z,8.29
2024-01-24T19:14:03.072Z,8.22
2024-01-24T19:16:32.624Z,8.24
2024-01-24T19:19:02.264Z,8.19
2024-01-24T19:21:31.333Z,8.17
2024-01-24T19:24:00.712Z,8.18
2024-01-24T19:26:34.022Z,8.13
2024-01-24T19:29:04.836Z,8.19
2024-01-24T19:31:33.795Z,8.16
2024-01-24T19:34:02.171Z,8.15
2024-01-24T19:36:31.609Z,8.17
2024-01-24T19:39:00.952Z,8.16
2024-01-24T19:41:30.523Z,8.10
2024-01-24T19:43:59.909Z,8.12
2024-01-24T19:46:30.277Z,8.06
2024-01-24T19:48:59.688Z,7.98
2024-01-24T19:51:29.100Z,8.04
2024-01-24T19:53:58.539Z,7.91
2024-01-24T19:56:27.680Z,8.01
2024-01-24T19:58:58.046Z,7.97
2024-01-24T20:01:27.103Z,8.00
2024-01-24T20:03:57.955Z,7.99
2024-01-24T20:06:27.208Z,7.91
2024-01-24T20:08:56.639Z,8.01
2024-01-24T20:11:26.148Z,7.88
2024-01-24T20:13:55.497Z,7.94
2024-01-24T20:16:24.550Z,7.88
2024-01-24T20:18:54.002Z,7.86
2024-01-24T20:21:24.466Z,8.01
2024-01-24T20:23:53.788Z,8.02
2024-01-24T20:26:23.546Z,8.04
2024-01-24T20:28:52.960Z,7.85
2024-01-24T20:31:21.913Z,7.91
2024-01-24T20:33:51.420Z,7.96
2024-01-24T20:36:22.038Z,7.84
2024-01-24T20:38:52.924Z,7.65
2024-01-24T20:41:22.309Z,7.80
2024-01-24T20:43:52.122Z,7.85
2024-01-24T20:46:21.143Z,7.86
2024-01-24T20:48:51.129Z,7.83
2024-01-24T20:51:20.141Z,7.81
2024-01-24T20:53:49.405Z,7.76
2024-01-24T20:56:20.164Z,7.77
2024-01-24T20:58:49.440Z,7.77
2024-01-24T21:01:18.674Z,7.70
2024-01-24T21:03:49.085Z,7.67
2024-01-24T21:06:18.212Z,7.71
2024-01-24T21:08:47.515Z,7.62
2024-01-24T21:11:16.463Z,7.67
2024-01-24T21:13:47.086Z,7.69
2024-01-24T21:16:16.031Z,7.61
2024-01-24T21:18:47.502Z,7.61
2024-01-24T21:21:16.637Z,7.57
2024-01-24T21:23:45.971Z,7.51
2024-01-24T21:26:14.963Z,7.49
2024-01-24T21:28:44.392Z,7.52
2024-01-24T21:31:14.965Z,7.37
2024-01-24T21:33:44.269Z,7.45
2024-01-24T21:36:13.315Z,7.34
2024-01-24T21:38:41.633Z,7.40
2024-01-24T21:41:10.622Z,7.27
2024-01-24T21:43:39.960Z,7.26
2024-01-24T21:46:08.970Z,7.18
2024-01-24T21:48:39.922Z,7.28
2024-01-24T21:51:09.669Z,7.30
2024-01-24T21:53:39.024Z,7.24
2024-01-24T21:56:08.290Z,7.19
2024-01-24T21:58:39.290Z,7.15
2024-01-24T22:01:08.384Z,7.22
2024-01-24T22:03:39.222Z,7.14
2024-01-24T22:06:08.430Z,7.23
2024-01-24T22:08:38.952Z,7.22
2024-01-24T22:11:07.866Z,7.21
2024-01-24T22:13:37.214Z,7.17
2024-01-24T22:16:06.619Z,7.24
2024-01-24T22:18:41.131Z,7.25
2024-01-24T22:21:18.782Z,7.33
2024-01-24T22:23:48.232Z,7.31
2024-01-24T22:26:17.141Z,7.26
2024-01-24T22:28:46.491Z,7.34
2024-01-24T22:31:15.497Z,7.42
2024-01-24T22:33:45.389Z,7.34
2024-01-24T22:36:14.411Z,7.48
2024-01-24T22:38:47.069Z,7.50
2024-01-24T22:41:16.048Z,7.42
2024-01-24T22:43:45.383Z,7.53
2024-01-24T22:46:14.407Z,7.51
2024-01-24T22:48:43.957Z,7.61
2024-01-24T22:51:14.691Z,7.70
2024-01-24T22:53:45.379Z,7.60
2024-01-24T22:56:14.303Z,7.62
2024-01-24T22:58:43.529Z,7.54
2024-01-24T23:01:12.963Z,7.57
2024-01-24T23:03:42.242Z,7.60
2024-01-24T23:06:11.265Z,7.66
2024-01-24T23:08:40.731Z,7.71
2024-01-24T23:11:12.180Z,7.63
2024-01-24T23:13:41.951Z,7.51
2024-01-24T23:16:11.004Z,7.44
2024-01-24T23:18:40.344Z,7.49
2024-01-24T23:21:09.335Z,7.45
2024-01-24T23:23:38.630Z,7.56
2024-01-24T23:26:07.573Z,7.53
2024-01-24T23:28:38.204Z,7.54
2024-01-24T23:31:07.260Z,7.48
2024-01-24T23:33:36.769Z,7.53
2024-01-24T23:36:06.006Z,7.56
2024-01-24T23:38:35.420Z,7.42
2024-01-24T23:41:04.467Z,7.47
2024-01-24T23:43:33.717Z,7.44
2024-01-24T23:46:04.056Z,7.36
2024-01-24T23:48:34.197Z,7.46
2024-01-24T23:51:03.452Z,7.32
2024-01-24T23:53:33.030Z,7.40
2024-01-24T23:56:01.902Z,7.31
2024-01-24T23:58:31.207Z,7.34
